sensor_id;sensor_type;location;lat;lon;timestamp;pressure;altitude;pressure_sealevel;temperature;humidity
69574;BME280;62840;52.366;5.980;2023-02-04T00:01:09;103122.53;;;7.89;71.18
69574;BME280;62840;52.366;5.980;2023-02-04T00:03:34;103130.53;;;7.88;71.30
69574;BME280;62840;52.366;5.980;2023-02-04T00:06:03;103128.88;;;7.85;71.18
69574;BME280;62840;52.366;5.980;2023-02-04T00:08:29;103132.50;;;7.83;71.12
69574;BME280;62840;52.366;5.980;2023-02-04T00:10:55;103136.06;;;7.82;71.40
69574;BME280;62840;52.366;5.980;2023-02-04T00:13:20;103141.38;;;7.82;71.31
69574;BME280;62840;52.366;5.980;2023-02-04T00:15:46;103134.34;;;7.81;71.21
69574;BME280;62840;52.366;5.980;2023-02-04T00:18:12;103137.03;;;7.79;71.38
69574;BME280;62840;52.366;5.980;2023-02-04T00:20:38;103139.75;;;7.78;71.41
69574;BME280;62840;52.366;5.980;2023-02-04T00:23:06;103153.03;;;7.78;71.50
69574;BME280;62840;52.366;5.980;2023-02-04T00:25:32;103143.31;;;7.77;71.43
69574;BME280;62840;52.366;5.980;2023-02-04T00:27:57;103150.47;;;7.74;71.42
69574;BME280;62840;52.366;5.980;2023-02-04T00:30:23;103154.84;;;7.75;71.44
69574;BME280;62840;52.366;5.980;2023-02-04T00:32:49;103153.09;;;7.76;71.41
69574;BME280;62840;52.366;5.980;2023-02-04T00:35:14;103148.66;;;7.77;71.50
69574;BME280;62840;52.366;5.980;2023-02-04T00:37:40;103139.75;;;7.78;71.44
69574;BME280;62840;52.366;5.980;2023-02-04T00:40:10;103148.53;;;7.80;71.43
69574;BME280;62840;52.366;5.980;2023-02-04T00:42:37;103140.63;;;7.78;71.43
69574;BME280;62840;52.366;5.980;2023-02-04T00:45:03;103151.25;;;7.78;71.41
69574;BME280;62840;52.366;5.980;2023-02-04T00:47:29;103153.03;;;7.78;71.46
69574;BME280;62840;52.366;5.980;2023-02-04T00:49:54;103159.25;;;7.77;71.44
69574;BME280;62840;52.366;5.980;2023-02-04T00:52:20;103150.38;;;7.78;71.58
69574;BME280;62840;52.366;5.980;2023-02-04T00:54:46;103151.19;;;7.80;71.63
69574;BME280;62840;52.366;5.980;2023-02-04T00:57:14;103161.81;;;7.80;71.59
69574;BME280;62840;52.366;5.980;2023-02-04T00:59:40;103147.63;;;7.81;71.59
69574;BME280;62840;52.366;5.980;2023-02-04T01:02:06;103154.69;;;7.80;71.49
69574;BME280;62840;52.366;5.980;2023-02-04T01:04:32;103163.59;;;7.79;71.46
69574;BME280;62840;52.366;5.980;2023-02-04T01:06:57;103161.88;;;7.78;71.55
69574;BME280;62840;52.366;5.980;2023-02-04T01:09:23;103171.63;;;7.78;71.44
69574;BME280;62840;52.366;5.980;2023-02-04T01:11:49;103178.75;;;7.75;71.41
69574;BME280;62840;52.366;5.980;2023-02-04T01:14:17;103177.03;;;7.74;71.68
69574;BME280;62840;52.366;5.980;2023-02-04T01:16:43;103177.03;;;7.74;71.66
69574;BME280;62840;52.366;5.980;2023-02-04T01:19:09;103186.81;;;7.74;71.48
69574;BME280;62840;52.366;5.980;2023-02-04T01:21:34;103189.50;;;7.72;71.58
69574;BME280;62840;52.366;5.980;2023-02-04T01:24:00;103191.34;;;7.70;71.84
69574;BME280;62840;52.366;5.980;2023-02-04T01:26:26;103195.81;;;7.68;71.57
69574;BME280;62840;52.366;5.980;2023-02-04T01:28:52;103200.31;;;7.66;71.63
69574;BME280;62840;52.366;5.980;2023-02-04T01:31:20;103200.44;;;7.63;71.59
69574;BME280;62840;52.366;5.980;2023-02-04T01:33:46;103207.56;;;7.61;71.51
69574;BME280;62840;52.366;5.980;2023-02-04T01:36:12;103207.56;;;7.61;71.60
69574;BME280;62840;52.366;5.980;2023-02-04T01:38:38;103219.13;;;7.60;71.73
69574;BME280;62840;52.366;5.980;2023-02-04T01:41:04;103214.81;;;7.56;71.71
69574;BME280;62840;52.366;5.980;2023-02-04T01:43:31;103225.53;;;7.53;71.67
69574;BME280;62840;52.366;5.980;2023-02-04T01:45:58;103222.16;;;7.48;71.76
69574;BME280;62840;52.366;5.980;2023-02-04T01:48:27;103207.19;;;7.45;71.85
69574;BME280;62840;52.366;5.980;2023-02-04T01:50:56;103213.47;;;7.43;71.69
69574;BME280;62840;52.366;5.980;2023-02-04T01:53:26;103222.41;;;7.39;71.77
69574;BME280;62840;52.366;5.980;2023-02-04T01:55:52;103226.00;;;7.38;71.71
69574;BME280;62840;52.366;5.980;2023-02-04T01:58:18;103231.31;;;7.38;71.82
69574;BME280;62840;52.366;5.980;2023-02-04T02:00:44;103234.00;;;7.36;71.82
69574;BME280;62840;52.366;5.980;2023-02-04T02:03:10;103231.41;;;7.33;71.74
69574;BME280;62840;52.366;5.980;2023-02-04T02:05:41;103243.94;;;7.29;71.87
69574;BME280;62840;52.366;5.980;2023-02-04T02:08:10;103233.41;;;7.26;71.84
69574;BME280;62840;52.366;5.980;2023-02-04T02:10:38;103229.94;;;7.24;71.96
69574;BME280;62840;52.366;5.980;2023-02-04T02:13:07;103233.50;;;7.23;71.90
69574;BME280;62840;52.366;5.980;2023-02-04T02:15:37;103231.84;;;7.19;71.81
69574;BME280;62840;52.366;5.980;2023-02-04T02:18:03;103236.31;;;7.17;71.89
69574;BME280;62840;52.366;5.980;2023-02-04T02:20:29;103230.22;;;7.15;72.03
69574;BME280;62840;52.366;5.980;2023-02-04T02:23:03;103232.97;;;7.10;71.80
69574;BME280;62840;52.366;5.980;2023-02-04T02:25:37;103232.31;;;7.04;71.99
69574;BME280;62840;52.366;5.980;2023-02-04T02:28:08;103240.38;;;6.99;72.06
69574;BME280;62840;52.366;5.980;2023-02-04T02:30:36;103254.59;;;6.97;72.26
69574;BME280;62840;52.366;5.980;2023-02-04T02:33:03;103260.94;;;6.92;72.15
69574;BME280;62840;52.366;5.980;2023-02-04T02:35:29;103257.53;;;6.87;72.29
69574;BME280;62840;52.366;5.980;2023-02-04T02:37:56;103252.31;;;6.84;72.27
69574;BME280;62840;52.366;5.980;2023-02-04T02:40:21;103254.13;;;6.82;72.23
69574;BME280;62840;52.366;5.980;2023-02-04T02:42:51;103254.25;;;6.79;72.46
69574;BME280;62840;52.366;5.980;2023-02-04T02:45:21;103251.66;;;6.76;72.32
69574;BME280;62840;52.366;5.980;2023-02-04T02:47:49;103258.78;;;6.74;72.45
69574;BME280;62840;52.366;5.980;2023-02-04T02:50:17;103262.38;;;6.71;72.59
69574;BME280;62840;52.366;5.980;2023-02-04T02:52:45;103254.47;;;6.70;72.54
69574;BME280;62840;52.366;5.980;2023-02-04T02:55:13;103256.31;;;6.68;72.67
69574;BME280;62840;52.366;5.980;2023-02-04T02:57:41;103255.34;;;6.70;72.79
69574;BME280;62840;52.366;5.980;2023-02-04T03:00:16;103257.13;;;6.70;72.77
69574;BME280;62840;52.366;5.980;2023-02-04T03:02:55;103257.19;;;6.68;72.75
69574;BME280;62840;52.366;5.980;2023-02-04T03:05:24;103250.13;;;6.67;72.66
69574;BME280;62840;52.366;5.980;2023-02-04T03:07:51;103256.31;;;6.68;72.65
69574;BME280;62840;52.366;5.980;2023-02-04T03:10:17;103252.75;;;6.69;72.66
69574;BME280;62840;52.366;5.980;2023-02-04T03:12:43;103256.25;;;6.69;72.55
69574;BME280;62840;52.366;5.980;2023-02-04T03:15:15;103266.94;;;6.68;72.75
69574;BME280;62840;52.366;5.980;2023-02-04T03:17:42;103275.69;;;6.70;72.45
69574;BME280;62840;52.366;5.980;2023-02-04T03:20:10;103271.31;;;6.69;72.79
69574;BME280;62840;52.366;5.980;2023-02-04T03:22:36;103273.97;;;6.69;72.81
69574;BME280;62840;52.366;5.980;2023-02-04T03:25:02;103288.91;;;6.71;72.67
69574;BME280;62840;52.366;5.980;2023-02-04T03:27:29;103279.16;;;6.72;72.59
69574;BME280;62840;52.366;5.980;2023-02-04T03:29:55;103280.91;;;6.73;72.68
69574;BME280;62840;52.366;5.980;2023-02-04T03:32:23;103280.91;;;6.73;72.58
69574;BME280;62840;52.366;5.980;2023-02-04T03:34:49;103284.44;;;6.74;72.73
69574;BME280;62840;52.366;5.980;2023-02-04T03:37:15;103289.72;;;6.75;72.75
69574;BME280;62840;52.366;5.980;2023-02-04T03:39:41;103280.81;;;6.76;72.85
69574;BME280;62840;52.366;5.980;2023-02-04T03:42:06;103289.63;;;6.78;72.69
69574;BME280;62840;52.366;5.980;2023-02-04T03:44:32;103287.78;;;6.80;72.76
69574;BME280;62840;52.366;5.980;2023-02-04T03:46:58;103277.19;;;6.80;72.70
69574;BME280;62840;52.366;5.980;2023-02-04T03:49:26;103273.59;;;6.81;72.73
69574;BME280;62840;52.366;5.980;2023-02-04T03:51:52;103270.03;;;6.84;72.82
69574;BME280;62840;52.366;5.980;2023-02-04T03:54:18;103284.16;;;6.84;72.53
69574;BME280;62840;52.366;5.980;2023-02-04T03:56:43;103285.03;;;6.83;72.84
69574;BME280;62840;52.366;5.980;2023-02-04T03:59:09;103284.16;;;6.84;72.78
69574;BME280;62840;52.366;5.980;2023-02-04T04:01:35;103277.09;;;6.83;72.73
69574;BME280;62840;52.366;5.980;2023-02-04T04:04:01;103282.38;;;6.83;72.92
69574;BME280;62840;52.366;5.980;2023-02-04T04:06:29;103287.69;;;6.83;72.91
69574;BME280;62840;52.366;5.980;2023-02-04T04:08:55;103294.75;;;6.84;72.86
69574;BME280;62840;52.366;5.980;2023-02-04T04:11:20;103305.38;;;6.84;73.09
69574;BME280;62840;52.366;5.980;2023-02-04T04:13:46;103308.91;;;6.83;73.12
69574;BME280;62840;52.366;5.980;2023-02-04T04:16:12;103308.06;;;6.83;73.03
69574;BME280;62840;52.366;5.980;2023-02-04T04:18:38;103312.47;;;6.84;72.97
69574;BME280;62840;52.366;5.980;2023-02-04T04:21:04;103305.38;;;6.84;72.96
69574;BME280;62840;52.366;5.980;2023-02-04T04:23:32;103307.94;;;6.87;72.91
69574;BME280;62840;52.366;5.980;2023-02-04T04:25:58;103309.69;;;6.88;72.97
69574;BME280;62840;52.366;5.980;2023-02-04T04:28:24;103312.34;;;6.88;72.83
69574;BME280;62840;52.366;5.980;2023-02-04T04:30:49;103313.19;;;6.89;73.06
69574;BME280;62840;52.366;5.980;2023-02-04T04:33:15;103325.59;;;6.88;72.98
69574;BME280;62840;52.366;5.980;2023-02-04T04:35:41;103325.63;;;6.87;72.92
69574;BME280;62840;52.366;5.980;2023-02-04T04:38:06;103319.47;;;6.86;72.81
69574;BME280;62840;52.366;5.980;2023-02-04T04:40:35;103331.91;;;6.84;72.92
69574;BME280;62840;52.366;5.980;2023-02-04T04:43:01;103334.56;;;6.83;73.00
69574;BME280;62840;52.366;5.980;2023-02-04T04:45:26;103336.41;;;6.81;72.90
69574;BME280;62840;52.366;5.980;2023-02-04T04:47:52;103332.88;;;6.80;72.81
69574;BME280;62840;52.366;5.980;2023-02-04T04:50:18;103339.13;;;6.79;72.89
69574;BME280;62840;52.366;5.980;2023-02-04T04:52:44;103334.78;;;6.75;72.95
69574;BME280;62840;52.366;5.980;2023-02-04T04:55:10;103342.81;;;6.72;73.05
69574;BME280;62840;52.366;5.980;2023-02-04T04:57:38;103335.88;;;6.68;73.24
69574;BME280;62840;52.366;5.980;2023-02-04T05:00:06;103349.28;;;6.62;73.07
69574;BME280;62840;52.366;5.980;2023-02-04T05:02:33;103346.69;;;6.59;73.11
69574;BME280;62840;52.366;5.980;2023-02-04T05:04:59;103352.06;;;6.56;73.20
69574;BME280;62840;52.366;5.980;2023-02-04T05:07:24;103364.59;;;6.50;73.12
69574;BME280;62840;52.366;5.980;2023-02-04T05:09:50;103366.41;;;6.48;73.34
69574;BME280;62840;52.366;5.980;2023-02-04T05:12:16;103364.66;;;6.47;73.46
69574;BME280;62840;52.366;5.980;2023-02-04T05:14:44;103363.84;;;6.45;73.38
69574;BME280;62840;52.366;5.980;2023-02-04T05:17:10;103370.03;;;6.44;73.30
69574;BME280;62840;52.366;5.980;2023-02-04T05:19:36;103371.84;;;6.42;73.43
69574;BME280;62840;52.366;5.980;2023-02-04T05:22:01;103371.06;;;6.39;73.47
69574;BME280;62840;52.366;5.980;2023-02-04T05:24:27;103372.00;;;6.36;73.27
69574;BME280;62840;52.366;5.980;2023-02-04T05:26:53;103368.53;;;6.34;73.41
69574;BME280;62840;52.366;5.980;2023-02-04T05:29:19;103370.34;;;6.32;73.38
69574;BME280;62840;52.366;5.980;2023-02-04T05:31:47;103372.16;;;6.30;73.40
69574;BME280;62840;52.366;5.980;2023-02-04T05:34:13;103373.03;;;6.30;73.50
69574;BME280;62840;52.366;5.980;2023-02-04T05:36:38;103370.41;;;6.29;73.56
69574;BME280;62840;52.366;5.980;2023-02-04T05:39:04;103368.66;;;6.28;73.40
69574;BME280;62840;52.366;5.980;2023-02-04T05:41:30;103362.50;;;6.27;73.34
69574;BME280;62840;52.366;5.980;2023-02-04T05:43:55;103359.88;;;6.26;73.38
69574;BME280;62840;52.366;5.980;2023-02-04T05:46:21;103366.03;;;6.26;73.46
69574;BME280;62840;52.366;5.980;2023-02-04T05:48:50;103376.72;;;6.23;73.40
69574;BME280;62840;52.366;5.980;2023-02-04T05:51:15;103370.63;;;6.20;73.35
69574;BME280;62840;52.366;5.980;2023-02-04T05:53:41;103376.00;;;6.17;73.54
69574;BME280;62840;52.366;5.980;2023-02-04T05:56:07;103370.75;;;6.14;73.58
69574;BME280;62840;52.366;5.980;2023-02-04T05:58:33;103374.31;;;6.13;73.61
69574;BME280;62840;52.366;5.980;2023-02-04T06:00:59;103378.78;;;6.11;73.48
69574;BME280;62840;52.366;5.980;2023-02-04T06:03:25;103375.31;;;6.08;73.51
69574;BME280;62840;52.366;5.980;2023-02-04T06:05:53;103381.56;;;6.04;73.64
69574;BME280;62840;52.366;5.980;2023-02-04T06:08:19;103373.69;;;6.01;73.57
69574;BME280;62840;52.366;5.980;2023-02-04T06:10:45;103376.34;;;6.01;73.56
69574;BME280;62840;52.366;5.980;2023-02-04T06:13:11;103380.84;;;5.98;73.55
69574;BME280;62840;52.366;5.980;2023-02-04T06:15:36;103376.47;;;5.95;73.64
69574;BME280;62840;52.366;5.980;2023-02-04T06:18:02;103373.00;;;5.93;73.42
69574;BME280;62840;52.366;5.980;2023-02-04T06:20:28;103387.22;;;5.89;73.56
69574;BME280;62840;52.366;5.980;2023-02-04T06:22:56;103393.50;;;5.85;73.41
69574;BME280;62840;52.366;5.980;2023-02-04T06:25:22;103400.63;;;5.81;73.74
69574;BME280;62840;52.366;5.980;2023-02-04T06:27:48;103404.22;;;5.77;73.54
69574;BME280;62840;52.366;5.980;2023-02-04T06:30:17;103413.19;;;5.72;73.54
69574;BME280;62840;52.366;5.980;2023-02-04T06:32:43;103403.56;;;5.67;73.68
69574;BME280;62840;52.366;5.980;2023-02-04T06:35:10;103408.09;;;5.62;73.58
69574;BME280;62840;52.366;5.980;2023-02-04T06:37:35;103416.06;;;5.59;73.53
69574;BME280;62840;52.366;5.980;2023-02-04T06:40:05;103415.28;;;5.56;73.79
69574;BME280;62840;52.366;5.980;2023-02-04T06:42:31;103417.09;;;5.54;73.64
69574;BME280;62840;52.366;5.980;2023-02-04T06:44:57;103416.22;;;5.53;73.83
69574;BME280;62840;52.366;5.980;2023-02-04T06:47:23;103418.03;;;5.51;73.88
69574;BME280;62840;52.366;5.980;2023-02-04T06:49:48;103415.38;;;5.51;73.92
69574;BME280;62840;52.366;5.980;2023-02-04T06:52:14;103421.56;;;5.50;73.97
69574;BME280;62840;52.366;5.980;2023-02-04T06:54:40;103423.34;;;5.48;73.91
69574;BME280;62840;52.366;5.980;2023-02-04T06:57:08;103429.56;;;5.49;73.80
69574;BME280;62840;52.366;5.980;2023-02-04T06:59:34;103430.41;;;5.49;73.99
69574;BME280;62840;52.366;5.980;2023-02-04T07:02:02;103437.44;;;5.50;73.94
69574;BME280;62840;52.366;5.980;2023-02-04T07:04:29;103442.72;;;5.50;73.91
69574;BME280;62840;52.366;5.980;2023-02-04T07:06:55;103437.44;;;5.50;73.86
69574;BME280;62840;52.366;5.980;2023-02-04T07:09:21;103439.25;;;5.48;73.88
69574;BME280;62840;52.366;5.980;2023-02-04T07:11:47;103444.53;;;5.48;73.72
69574;BME280;62840;52.366;5.980;2023-02-04T07:14:15;103456.03;;;5.47;73.67
69574;BME280;62840;52.366;5.980;2023-02-04T07:16:41;103455.19;;;5.45;73.68
69574;BME280;62840;52.366;5.980;2023-02-04T07:19:07;103451.69;;;5.43;73.75
69574;BME280;62840;52.366;5.980;2023-02-04T07:21:32;103451.78;;;5.40;73.76
69574;BME280;62840;52.366;5.980;2023-02-04T07:23:58;103450.00;;;5.39;73.72
69574;BME280;62840;52.366;5.980;2023-02-04T07:26:24;103450.06;;;5.36;73.66
69574;BME280;62840;52.366;5.980;2023-02-04T07:28:50;103458.91;;;5.35;73.92
69574;BME280;62840;52.366;5.980;2023-02-04T07:31:18;103459.84;;;5.32;73.59
69574;BME280;62840;52.366;5.980;2023-02-04T07:33:44;103470.41;;;5.32;73.64
69574;BME280;62840;52.366;5.980;2023-02-04T07:36:09;103472.19;;;5.32;73.73
69574;BME280;62840;52.366;5.980;2023-02-04T07:38:35;103471.34;;;5.30;73.74
69574;BME280;62840;52.366;5.980;2023-02-04T07:41:01;103480.19;;;5.29;73.81
69574;BME280;62840;52.366;5.980;2023-02-04T07:43:26;103492.50;;;5.30;73.70
69574;BME280;62840;52.366;5.980;2023-02-04T07:45:52;103498.69;;;5.30;73.68
69574;BME280;62840;52.366;5.980;2023-02-04T07:48:21;103502.22;;;5.31;73.82
69574;BME280;62840;52.366;5.980;2023-02-04T07:50:46;103506.59;;;5.32;73.73
69574;BME280;62840;52.366;5.980;2023-02-04T07:53:12;103510.94;;;5.34;73.93
69574;BME280;62840;52.366;5.980;2023-02-04T07:55:38;103509.19;;;5.35;73.69
69574;BME280;62840;52.366;5.980;2023-02-04T07:58:04;103511.81;;;5.35;73.87
69574;BME280;62840;52.366;5.980;2023-02-04T08:00:29;103517.09;;;5.38;73.99
69574;BME280;62840;52.366;5.980;2023-02-04T08:02:55;103517.94;;;5.40;73.91
69574;BME280;62840;52.366;5.980;2023-02-04T08:05:23;103516.09;;;5.43;73.96
69574;BME280;62840;52.366;5.980;2023-02-04T08:07:49;103516.06;;;5.45;73.87
69574;BME280;62840;52.366;5.980;2023-02-04T08:10:15;103523.06;;;5.49;73.91
69574;BME280;62840;52.366;5.980;2023-02-04T08:12:41;103522.09;;;5.53;73.86
69574;BME280;62840;52.366;5.980;2023-02-04T08:15:08;103530.81;;;5.58;73.89
69574;BME280;62840;52.366;5.980;2023-02-04T08:17:34;103534.31;;;5.60;74.03
69574;BME280;62840;52.366;5.980;2023-02-04T08:20:00;103538.69;;;5.63;74.11
69574;BME280;62840;52.366;5.980;2023-02-04T08:22:29;103535.94;;;5.67;74.01
69574;BME280;62840;52.366;5.980;2023-02-04T08:24:54;103542.03;;;5.73;74.12
69574;BME280;62840;52.366;5.980;2023-02-04T08:27:20;103539.25;;;5.79;74.21
69574;BME280;62840;52.366;5.980;2023-02-04T08:29:46;103547.09;;;5.85;74.03
69574;BME280;62840;52.366;5.980;2023-02-04T08:32:12;103549.69;;;5.88;74.10
69574;BME280;62840;52.366;5.980;2023-02-04T08:34:37;103551.38;;;5.92;74.15
69574;BME280;62840;52.366;5.980;2023-02-04T08:37:03;103560.09;;;5.97;74.22
69574;BME280;62840;52.366;5.980;2023-02-04T08:39:32;103558.22;;;6.02;73.94
69574;BME280;62840;52.366;5.980;2023-02-04T08:41:57;103555.50;;;6.07;74.08
69574;BME280;62840;52.366;5.980;2023-02-04T08:44:23;103560.66;;;6.13;74.11
69574;BME280;62840;52.366;5.980;2023-02-04T08:46:49;103559.69;;;6.19;73.89
69574;BME280;62840;52.366;5.980;2023-02-04T08:49:15;103567.53;;;6.23;73.94
69574;BME280;62840;52.366;5.980;2023-02-04T08:51:40;103557.69;;;6.28;73.92
69574;BME280;62840;52.366;5.980;2023-02-04T08:54:06;103561.13;;;6.34;73.76
69574;BME280;62840;52.366;5.980;2023-02-04T08:56:34;103560.13;;;6.39;73.94
69574;BME280;62840;52.366;5.980;2023-02-04T08:59:00;103564.47;;;6.43;73.74
69574;BME280;62840;52.366;5.980;2023-02-04T09:01:26;103566.09;;;6.49;73.99
69574;BME280;62840;52.366;5.980;2023-02-04T09:03:51;103562.47;;;6.55;73.97
69574;BME280;62840;52.366;5.980;2023-02-04T09:06:17;103565.88;;;6.60;73.65
69574;BME280;62840;52.366;5.980;2023-02-04T09:08:43;103568.41;;;6.66;73.98
69574;BME280;62840;52.366;5.980;2023-02-04T09:11:09;103568.22;;;6.72;73.92
69574;BME280;62840;52.366;5.980;2023-02-04T09:13:38;103561.06;;;6.77;73.70
69574;BME280;62840;52.366;5.980;2023-02-04T09:16:04;103567.97;;;6.84;73.75
69574;BME280;62840;52.366;5.980;2023-02-04T09:18:30;103569.59;;;6.90;73.61
69574;BME280;62840;52.366;5.980;2023-02-04T09:20:56;103572.13;;;6.95;73.93
69574;BME280;62840;52.366;5.980;2023-02-04T09:23:23;103572.94;;;6.98;73.86
69574;BME280;62840;52.366;5.980;2023-02-04T09:25:49;103571.94;;;7.04;73.89
69574;BME280;62840;52.366;5.980;2023-02-04T09:28:16;103575.34;;;7.09;73.84
69574;BME280;62840;52.366;5.980;2023-02-04T09:30:45;103573.38;;;7.17;74.01
69574;BME280;62840;52.366;5.980;2023-02-04T09:33:13;103573.22;;;7.23;73.88
69574;BME280;62840;52.366;5.980;2023-02-04T09:35:40;103577.44;;;7.32;73.78
69574;BME280;62840;52.366;5.980;2023-02-04T09:38:06;103572.78;;;7.42;73.83
69574;BME280;62840;52.366;5.980;2023-02-04T09:40:34;103577.88;;;7.51;73.78
69574;BME280;62840;52.366;5.980;2023-02-04T09:43:03;103577.72;;;7.57;73.54
69574;BME280;62840;52.366;5.980;2023-02-04T09:45:32;103579.28;;;7.64;73.53
69574;BME280;62840;52.366;5.980;2023-02-04T09:48:03;103573.81;;;7.70;73.44
69574;BME280;62840;52.366;5.980;2023-02-04T09:50:31;103573.56;;;7.80;73.51
69574;BME280;62840;52.366;5.980;2023-02-04T09:53:00;103581.28;;;7.89;73.59
69574;BME280;62840;52.366;5.980;2023-02-04T09:55:30;103583.78;;;7.95;73.39
69574;BME280;62840;52.366;5.980;2023-02-04T09:57:57;103587.13;;;8.03;73.35
69574;BME280;62840;52.366;5.980;2023-02-04T10:00:25;103602.88;;;8.09;73.26
69574;BME280;62840;52.366;5.980;2023-02-04T10:02:55;103606.31;;;8.14;72.88
69574;BME280;62840;52.366;5.980;2023-02-04T10:05:28;103615.09;;;8.16;72.83
69574;BME280;62840;52.366;5.980;2023-02-04T10:07:56;103615.00;;;8.20;72.88
69574;BME280;62840;52.366;5.980;2023-02-04T10:10:25;103615.84;;;8.22;72.86
69574;BME280;62840;52.366;5.980;2023-02-04T10:12:54;103615.81;;;8.23;72.89
69574;BME280;62840;52.366;5.980;2023-02-04T10:15:23;103618.41;;;8.25;72.72
69574;BME280;62840;52.366;5.980;2023-02-04T10:17:51;103622.75;;;8.27;72.86
69574;BME280;62840;52.366;5.980;2023-02-04T10:20:21;103624.41;;;8.31;72.72
69574;BME280;62840;52.366;5.980;2023-02-04T10:22:53;103625.22;;;8.35;72.77
69574;BME280;62840;52.366;5.980;2023-02-04T10:25:22;103626.88;;;8.39;72.82
69574;BME280;62840;52.366;5.980;2023-02-04T10:27:50;103626.78;;;8.42;72.65
69574;BME280;62840;52.366;5.980;2023-02-04T10:30:20;103621.34;;;8.45;72.75
69574;BME280;62840;52.366;5.980;2023-02-04T10:32:47;103623.94;;;8.48;72.83
69574;BME280;62840;52.366;5.980;2023-02-04T10:35:15;103623.88;;;8.50;72.67
69574;BME280;62840;52.366;5.980;2023-02-04T10:37:43;103628.25;;;8.52;72.79
69574;BME280;62840;52.366;5.980;2023-02-04T10:40:29;103624.69;;;8.53;72.72
69574;BME280;62840;52.366;5.980;2023-02-04T10:42:56;103626.41;;;8.54;72.84
69574;BME280;62840;52.366;5.980;2023-02-04T10:45:24;103626.34;;;8.57;72.71
69574;BME280;62840;52.366;5.980;2023-02-04T10:47:51;103628.81;;;8.64;72.62
69574;BME280;62840;52.366;5.980;2023-02-04T10:50:20;103632.22;;;8.69;72.66
69574;BME280;62840;52.366;5.980;2023-02-04T10:52:49;103624.13;;;8.72;72.69
69574;BME280;62840;52.366;5.980;2023-02-04T10:55:18;103625.88;;;8.73;72.37
69574;BME280;62840;52.366;5.980;2023-02-04T10:57:51;103620.56;;;8.73;72.55
69574;BME280;62840;52.366;5.980;2023-02-04T11:00:18;103622.28;;;8.74;72.52
69574;BME280;62840;52.366;5.980;2023-02-04T11:02:48;103627.63;;;8.74;72.54
69574;BME280;62840;52.366;5.980;2023-02-04T11:05:22;103638.25;;;8.74;72.46
69574;BME280;62840;52.366;5.980;2023-02-04T11:07:53;103640.88;;;8.75;72.49
69574;BME280;62840;52.366;5.980;2023-02-04T11:10:21;103627.44;;;8.80;72.49
69574;BME280;62840;52.366;5.980;2023-02-04T11:13:02;103636.16;;;8.85;72.57
69574;BME280;62840;52.366;5.980;2023-02-04T11:15:37;103634.31;;;8.87;72.26
69574;BME280;62840;52.366;5.980;2023-02-04T11:18:08;103627.16;;;8.89;72.31
69574;BME280;62840;52.366;5.980;2023-02-04T11:20:36;103629.72;;;8.92;72.07
69574;BME280;62840;52.366;5.980;2023-02-04T11:23:14;103621.66;;;8.95;71.92
69574;BME280;62840;52.366;5.980;2023-02-04T11:26:01;103625.13;;;8.97;71.75
69574;BME280;62840;52.366;5.980;2023-02-04T11:28:45;103621.53;;;8.98;71.45
69574;BME280;62840;52.366;5.980;2023-02-04T11:31:43;103617.03;;;9.00;71.07
69574;BME280;62840;52.366;5.980;2023-02-04T11:34:27;103626.00;;;8.98;70.90
69574;BME280;62840;52.366;5.980;2023-02-04T11:37:02;103626.75;;;9.01;71.25
69574;BME280;62840;52.366;5.980;2023-02-04T11:39:38;103623.09;;;9.06;71.13
69574;BME280;62840;52.366;5.980;2023-02-04T11:42:16;103623.91;;;9.08;71.18
69574;BME280;62840;52.366;5.980;2023-02-04T11:44:50;103624.75;;;9.10;70.99
69574;BME280;62840;52.366;5.980;2023-02-04T11:47:18;103629.91;;;9.14;70.93
69574;BME280;62840;52.366;5.980;2023-02-04T11:49:51;103628.91;;;9.18;70.93
69574;BME280;62840;52.366;5.980;2023-02-04T11:52:20;103633.25;;;9.21;70.61
69574;BME280;62840;52.366;5.980;2023-02-04T11:54:52;103631.41;;;9.23;70.45
69574;BME280;62840;52.366;5.980;2023-02-04T11:57:18;103624.28;;;9.24;70.14
69574;BME280;62840;52.366;5.980;2023-02-04T11:59:44;103621.59;;;9.25;70.28
69574;BME280;62840;52.366;5.980;2023-02-04T12:02:18;103619.75;;;9.27;70.38
69574;BME280;62840;52.366;5.980;2023-02-04T12:04:56;103622.28;;;9.32;70.65
69574;BME280;62840;52.366;5.980;2023-02-04T12:07:33;103618.66;;;9.34;70.58
69574;BME280;62840;52.366;5.980;2023-02-04T12:10:10;103616.81;;;9.36;70.34
69574;BME280;62840;52.366;5.980;2023-02-04T12:12:42;103615.84;;;9.39;70.38
69574;BME280;62840;52.366;5.980;2023-02-04T12:15:14;103616.66;;;9.41;69.80
69574;BME280;62840;52.366;5.980;2023-02-04T12:17:46;103618.34;;;9.44;69.78
69574;BME280;62840;52.366;5.980;2023-02-04T12:20:25;103617.38;;;9.46;69.71
69574;BME280;62840;52.366;5.980;2023-02-04T12:22:50;103612.81;;;9.50;69.45
69574;BME280;62840;52.366;5.980;2023-02-04T12:25:16;103618.16;;;9.50;69.39
69574;BME280;62840;52.366;5.980;2023-02-04T12:27:42;103619.88;;;9.51;69.41
69574;BME280;62840;52.366;5.980;2023-02-04T12:30:09;103618.16;;;9.50;69.55
69574;BME280;62840;52.366;5.980;2023-02-04T12:32:36;103618.22;;;9.47;69.57
69574;BME280;62840;52.366;5.980;2023-02-04T12:35:05;103614.75;;;9.45;69.45
69574;BME280;62840;52.366;5.980;2023-02-04T12:37:31;103623.69;;;9.44;69.62
69574;BME280;62840;52.366;5.980;2023-02-04T12:39:57;103614.66;;;9.48;69.60
69574;BME280;62840;52.366;5.980;2023-02-04T12:42:22;103618.03;;;9.53;69.63
69574;BME280;62840;52.366;5.980;2023-02-04T12:44:48;103617.06;;;9.55;69.11
69574;BME280;62840;52.366;5.980;2023-02-04T12:47:14;103621.31;;;9.61;69.04
69574;BME280;62840;52.366;5.980;2023-02-04T12:49:40;103608.81;;;9.63;68.89
69574;BME280;62840;52.366;5.980;2023-02-04T12:52:08;103619.38;;;9.66;69.00
69574;BME280;62840;52.366;5.980;2023-02-04T12:54:33;103620.22;;;9.67;68.69
69574;BME280;62840;52.366;5.980;2023-02-04T12:56:59;103622.84;;;9.68;68.53
69574;BME280;62840;52.366;5.980;2023-02-04T12:59:25;103621.88;;;9.71;68.65
69574;BME280;62840;52.366;5.980;2023-02-04T13:01:51;103620.03;;;9.73;67.78